createdAt,value
2018-01-31T01:53:24.869Z,5.00
2018-01-31T01:55:52.659Z,3.90
2018-01-31T01:58:21.202Z,6.47
2018-01-31T02:00:49.024Z,5.50
2018-01-31T02:03:17.571Z,10.07
2018-01-31T02:05:45.437Z,5.80
2018-01-31T02:08:13.290Z,7.10
2018-01-31T02:10:41.099Z,7.00
2018-01-31T02:13:09.707Z,7.27
2018-01-31T02:15:37.562Z,6.67
2018-01-31T02:18:05.411Z,10.67
2018-01-31T02:20:34.091Z,8.37
2018-01-31T02:23:02.699Z,4.40
2018-01-31T02:25:30.530Z,5.43
2018-01-31T02:27:59.087Z,12.13
2018-01-31T02:30:26.905Z,8.13
2018-01-31T02:32:54.769Z,4.00
2018-01-31T02:35:22.647Z,7.23
2018-01-31T02:37:50.455Z,7.40
2018-01-31T02:40:18.334Z,8.43
2018-01-31T02:42:46.968Z,10.53
2018-01-31T02:45:14.784Z,5.50
2018-01-31T02:47:42.571Z,5.13
2018-01-31T02:50:11.127Z,5.70
2018-01-31T02:52:38.984Z,5.30
2018-01-31T02:55:06.794Z,8.73
2018-01-31T02:57:34.570Z,5.90
2018-01-31T03:00:02.354Z,2.93
2018-01-31T03:02:30.163Z,3.50
2018-01-31T03:04:57.968Z,8.30
2018-01-31T03:07:25.768Z,5.10
2018-01-31T03:09:53.595Z,4.47
2018-01-31T03:12:21.370Z,7.80
2018-01-31T03:14:49.250Z,6.60
2018-01-31T03:17:17.118Z,5.80
2018-01-31T03:19:44.960Z,5.70
2018-01-31T03:22:12.788Z,6.13
2018-01-31T03:24:41.371Z,9.77
2018-01-31T03:27:09.951Z,11.90
2018-01-31T03:29:37.797Z,4.30
2018-01-31T03:32:05.729Z,5.60
2018-01-31T03:34:33.527Z,7.60
2018-01-31T03:37:01.386Z,6.37
2018-01-31T03:39:29.282Z,12.40
2018-01-31T03:41:58.854Z,10.90
2018-01-31T03:44:26.704Z,9.60
2018-01-31T03:46:54.557Z,4.93
2018-01-31T03:49:22.350Z,5.77
2018-01-31T03:51:50.179Z,6.83
2018-01-31T03:54:17.965Z,5.63
2018-01-31T03:56:45.755Z,8.03
2018-01-31T03:59:13.569Z,6.90
2018-01-31T04:01:42.243Z,9.97
2018-01-31T04:04:10.803Z,7.07
2018-01-31T04:06:38.622Z,9.03
2018-01-31T04:09:06.448Z,5.37
2018-01-31T04:11:35.043Z,9.30
2018-01-31T04:14:03.602Z,10.13
2018-01-31T04:16:31.408Z,9.17
2018-01-31T04:18:59.311Z,6.17
2018-01-31T04:21:27.234Z,4.27
2018-01-31T04:23:55.038Z,6.20
2018-01-31T04:26:22.836Z,8.27
2018-01-31T04:28:50.652Z,5.70
2018-01-31T04:31:18.455Z,10.03
2018-01-31T04:33:46.267Z,6.43
2018-01-31T04:36:14.055Z,6.50
2018-01-31T04:38:41.851Z,10.33
2018-01-31T04:41:09.679Z,8.83
2018-01-31T04:43:37.623Z,3.83
2018-01-31T04:46:05.443Z,9.13
2018-01-31T04:48:33.299Z,5.03
2018-01-31T04:51:01.106Z,9.33
2018-01-31T04:53:29.719Z,7.60
2018-01-31T04:55:57.566Z,7.30
2018-01-31T04:58:25.376Z,8.77
2018-01-31T05:00:53.191Z,5.80
2018-01-31T05:03:20.991Z,8.38
2018-01-31T05:05:48.770Z,9.63
2018-01-31T05:08:16.575Z,9.30
2018-01-31T05:10:45.120Z,8.20
2018-01-31T05:13:12.966Z,6.37
2018-01-31T05:15:40.759Z,8.17
2018-01-31T05:18:08.591Z,8.03
2018-01-31T05:20:36.507Z,5.30
2018-01-31T05:23:05.201Z,7.20
2018-01-31T05:25:33.786Z,10.73
2018-01-31T05:28:02.364Z,9.77
2018-01-31T05:30:31.008Z,10.53
2018-01-31T05:32:58.895Z,5.93
2018-01-31T05:35:26.682Z,5.37
2018-01-31T05:37:55.259Z,7.30
2018-01-31T05:40:23.840Z,4.87
2018-01-31T05:42:51.715Z,8.60
2018-01-31T05:45:20.279Z,5.80
2018-01-31T05:47:48.140Z,5.63
2018-01-31T05:50:16.038Z,4.73
2018-01-31T05:52:43.856Z,5.63
2018-01-31T05:55:11.656Z,6.73
2018-01-31T05:57:39.487Z,8.77
2018-01-31T06:00:07.351Z,4.57
2018-01-31T06:02:35.155Z,4.50
2018-01-31T06:05:03.850Z,7.20
2018-01-31T06:07:31.642Z,3.33
2018-01-31T06:09:59.487Z,3.53
2018-01-31T06:12:27.299Z,4.10
2018-01-31T06:14:55.075Z,7.00
2018-01-31T06:17:22.879Z,6.77
2018-01-31T06:19:51.429Z,4.20
2018-01-31T06:22:19.278Z,6.20
2018-01-31T06:24:47.099Z,6.57
2018-01-31T06:27:14.931Z,9.20
2018-01-31T06:29:42.755Z,10.00
2018-01-31T06:32:10.560Z,10.93
2018-01-31T06:34:38.398Z,3.50
2018-01-31T06:37:06.228Z,5.70
2018-01-31T06:39:34.058Z,8.30
2018-01-31T06:42:01.866Z,8.87
2018-01-31T06:44:29.761Z,4.90
2018-01-31T06:46:57.556Z,6.30
2018-01-31T06:49:25.343Z,3.33
2018-01-31T06:51:53.956Z,6.30
2018-01-31T06:54:21.780Z,5.50
2018-01-31T06:56:50.333Z,5.87
2018-01-31T06:59:18.123Z,7.70
2018-01-31T07:01:46.675Z,7.63
2018-01-31T07:04:14.515Z,4.03
2018-01-31T07:06:42.404Z,4.20
2018-01-31T07:09:10.226Z,5.83
2018-01-31T07:11:38.135Z,6.17
2018-01-31T07:14:06.005Z,6.70
2018-01-31T07:16:33.792Z,6.53
2018-01-31T07:19:01.614Z,5.70
2018-01-31T07:21:29.416Z,7.27
2018-01-31T07:23:57.263Z,4.10
2018-01-31T07:26:25.130Z,5.60
2018-01-31T07:28:53.006Z,5.90
2018-01-31T07:31:20.847Z,5.47
2018-01-31T07:33:48.647Z,7.63
2018-01-31T07:36:16.469Z,11.10
2018-01-31T07:38:44.288Z,6.17
2018-01-31T07:41:12.843Z,6.20
2018-01-31T07:43:40.612Z,4.03
2018-01-31T07:46:08.472Z,5.03
2018-01-31T07:48:36.255Z,3.03
2018-01-31T07:51:04.077Z,11.30
2018-01-31T07:53:31.922Z,12.60
2018-01-31T07:55:59.811Z,5.47
2018-01-31T07:58:27.633Z,4.43
2018-01-31T08:00:56.243Z,7.90
2018-01-31T08:03:24.065Z,12.23
2018-01-31T08:05:51.879Z,4.40
2018-01-31T08:08:19.679Z,12.40
2018-01-31T08:10:47.495Z,3.20
2018-01-31T08:13:15.363Z,3.90
2018-01-31T08:15:43.181Z,5.07
2018-01-31T08:18:10.983Z,5.17
2018-01-31T08:20:39.553Z,3.33
2018-01-31T08:23:08.140Z,4.33
2018-01-31T08:25:36.691Z,5.63
2018-01-31T08:28:04.488Z,7.37
2018-01-31T08:30:33.071Z,3.63
2018-01-31T08:33:00.978Z,6.70
2018-01-31T08:35:28.774Z,6.37
2018-01-31T08:37:56.625Z,7.47
2018-01-31T08:40:24.451Z,6.40
2018-01-31T08:42:52.235Z,2.80
2018-01-31T08:45:20.023Z,6.23
2018-01-31T08:47:47.832Z,5.23
2018-01-31T08:50:16.411Z,4.87
2018-01-31T08:52:44.971Z,7.80
2018-01-31T08:55:13.547Z,9.20
2018-01-31T08:57:41.344Z,8.40
2018-01-31T09:00:09.915Z,5.50
2018-01-31T09:02:38.494Z,5.60
2018-01-31T09:05:07.127Z,5.93
2018-01-31T09:07:34.946Z,10.17
2018-01-31T09:10:03.626Z,4.70
2018-01-31T09:12:32.195Z,5.13
2018-01-31T09:14:59.979Z,7.53
2018-01-31T09:17:27.815Z,8.90
2018-01-31T09:19:55.590Z,3.97
2018-01-31T09:22:23.447Z,4.47
2018-01-31T09:24:51.294Z,5.23
2018-01-31T09:27:19.113Z,3.07
2018-01-31T09:29:47.802Z,6.30
2018-01-31T09:32:15.657Z,6.70
2018-01-31T09:34:44.220Z,18.10
2018-01-31T09:37:12.091Z,2.70
2018-01-31T09:39:39.907Z,3.70
2018-01-31T09:42:08.491Z,5.23
2018-01-31T09:44:36.290Z,4.20
2018-01-31T09:47:04.156Z,4.20
2018-01-31T09:49:32.098Z,4.93
2018-01-31T09:51:59.967Z,5.87
2018-01-31T09:54:27.823Z,5.13
2018-01-31T09:56:55.630Z,4.23
2018-01-31T09:59:23.433Z,3.40
2018-01-31T10:01:51.215Z,11.50
2018-01-31T10:04:19.039Z,9.80
2018-01-31T10:06:46.851Z,9.87
2018-01-31T10:09:14.655Z,5.77
2018-01-31T10:11:42.436Z,5.63
2018-01-31T10:14:10.291Z,11.03
2018-01-31T10:16:38.169Z,5.37
2018-01-31T10:19:06.742Z,6.23
2018-01-31T10:21:34.523Z,5.30
2018-01-31T10:24:03.084Z,10.43
2018-01-31T10:26:31.006Z,5.10
2018-01-31T10:28:58.896Z,9.87
2018-01-31T10:31:26.680Z,3.27
2018-01-31T10:33:54.506Z,8.00
2018-01-31T10:36:22.295Z,3.30
2018-01-31T10:38:50.075Z,4.50
2018-01-31T10:41:17.881Z,2.70
2018-01-31T10:43:45.694Z,14.13
2018-01-31T10:46:13.475Z,12.00
2018-01-31T10:48:41.293Z,3.60
2018-01-31T10:51:09.143Z,4.00
2018-01-31T10:58:32.794Z,3.27
2018-01-31T11:01:00.643Z,5.00
2018-01-31T11:03:28.528Z,5.70
2018-01-31T11:05:56.324Z,6.37
2018-01-31T11:08:24.099Z,4.00
2018-01-31T11:10:52.719Z,3.47
2018-01-31T11:13:20.554Z,4.20
2018-01-31T11:15:48.344Z,3.17
2018-01-31T11:18:16.123Z,8.77
2018-01-31T11:20:44.077Z,5.47
2018-01-31T11:23:11.904Z,3.43
2018-01-31T11:25:39.714Z,4.50
2018-01-31T11:28:07.587Z,7.97
2018-01-31T11:30:35.458Z,4.43
2018-01-31T11:33:03.285Z,5.20
2018-01-31T11:35:31.075Z,10.10
2018-01-31T11:37:59.030Z,5.80
2018-01-31T11:40:26.919Z,4.17
2018-01-31T11:42:54.739Z,6.83
2018-01-31T11:45:22.551Z,7.80
2018-01-31T11:47:50.392Z,6.70
2018-01-31T11:50:18.258Z,8.00
2018-01-31T11:52:46.112Z,25.30
2018-01-31T11:55:13.911Z,5.13
2018-01-31T11:57:41.723Z,8.27
2018-01-31T12:00:10.380Z,20.90
2018-01-31T12:02:38.173Z,34.83
2018-01-31T12:05:06.870Z,21.00
2018-01-31T12:07:34.762Z,18.60
2018-01-31T12:10:02.626Z,10.70
2018-01-31T12:12:42.244Z,9.37
2018-01-31T12:15:21.911Z,12.03
2018-01-31T12:17:49.735Z,8.40
2018-01-31T12:20:30.159Z,4.53
2018-01-31T12:23:09.771Z,8.33
2018-01-31T12:25:49.455Z,4.53
2018-01-31T12:28:28.992Z,5.53
2018-01-31T12:31:08.668Z,6.53
2018-01-31T12:33:49.015Z,6.03
2018-01-31T12:36:29.438Z,3.97
2018-01-31T12:38:59.603Z,4.43
2018-01-31T12:41:27.646Z,8.20
2018-01-31T12:43:54.939Z,3.87
2018-01-31T12:46:34.587Z,3.53
2018-01-31T12:49:17.297Z,3.43
2018-01-31T12:51:56.825Z,5.47
2018-01-31T12:54:34.443Z,3.40
2018-01-31T12:57:14.319Z,11.63
2018-01-31T13:00:06.688Z,14.60
2018-01-31T13:05:54.856Z,10.47
2018-01-31T13:08:34.565Z,6.10
2018-01-31T13:11:28.008Z,16.00
2018-01-31T13:14:07.625Z,4.80
2018-01-31T13:16:48.102Z,9.80
2018-01-31T13:19:18.855Z,5.70
2018-01-31T13:21:58.373Z,13.33
2018-01-31T13:24:38.062Z,12.53
2018-01-31T13:27:27.248Z,6.57
2018-01-31T13:30:06.851Z,8.73
2018-01-31T13:32:46.498Z,6.57
2018-01-31T13:35:26.191Z,10.07
2018-01-31T13:38:11.735Z,5.13
2018-01-31T13:40:51.376Z,5.67
2018-01-31T13:43:31.008Z,6.10
2018-01-31T13:46:10.553Z,9.63
2018-01-31T13:48:50.271Z,10.60
2018-01-31T13:51:29.779Z,8.70
2018-01-31T13:54:10.111Z,18.90
2018-01-31T13:56:49.813Z,7.23
2018-01-31T13:59:29.416Z,6.77
2018-01-31T14:02:09.825Z,8.40
2018-01-31T14:04:49.423Z,15.87
2018-01-31T14:07:29.730Z,7.07
2018-01-31T14:10:09.307Z,9.57
2018-01-31T14:12:48.939Z,7.07
2018-01-31T14:15:28.432Z,16.97
2018-01-31T14:18:08.142Z,9.80
2018-01-31T14:20:48.618Z,10.77
2018-01-31T14:23:28.196Z,6.13
2018-01-31T14:26:07.810Z,8.87
2018-01-31T14:28:47.395Z,8.07
2018-01-31T14:31:27.012Z,10.00
2018-01-31T14:34:07.263Z,4.83
2018-01-31T14:36:34.578Z,6.17
2018-01-31T14:39:02.604Z,6.60
2018-01-31T14:41:29.876Z,13.37
2018-01-31T14:43:57.204Z,14.63
2018-01-31T14:46:24.443Z,21.00
2018-01-31T14:48:51.699Z,6.63
2018-01-31T14:51:18.969Z,6.00
2018-01-31T14:53:46.216Z,10.63
2018-01-31T14:56:13.479Z,6.20
2018-01-31T14:58:40.751Z,12.00
2018-01-31T15:01:08.023Z,15.63
2018-01-31T15:03:36.155Z,8.43
2018-01-31T15:06:03.424Z,8.73
2018-01-31T15:08:30.842Z,11.63
2018-01-31T15:10:58.113Z,12.07
2018-01-31T15:13:25.477Z,13.40
2018-01-31T15:15:52.778Z,16.43
2018-01-31T15:18:20.090Z,11.13
2018-01-31T15:20:47.337Z,12.37
2018-01-31T15:23:14.604Z,13.57
2018-01-31T15:25:44.472Z,9.57
2018-01-31T15:28:11.842Z,10.73
2018-01-31T15:30:39.134Z,14.40
2018-01-31T15:33:07.166Z,11.00
2018-01-31T15:35:34.435Z,10.37
2018-01-31T15:38:01.720Z,22.17
2018-01-31T15:40:29.748Z,12.37
2018-01-31T15:42:57.779Z,12.30
2018-01-31T15:45:25.013Z,13.20
2018-01-31T15:47:53.206Z,9.47
2018-01-31T15:50:20.779Z,6.87
2018-01-31T15:52:48.155Z,14.80
2018-01-31T15:55:15.433Z,9.67
2018-01-31T15:57:43.515Z,7.73
2018-01-31T16:00:18.804Z,9.57
2018-01-31T16:02:46.758Z,12.77
2018-01-31T16:05:14.075Z,11.63
2018-01-31T16:07:42.264Z,12.67
2018-01-31T16:10:10.325Z,8.50
2018-01-31T16:12:38.334Z,11.70
2018-01-31T16:15:05.583Z,13.97
2018-01-31T16:17:33.397Z,9.10
2018-01-31T16:20:13.113Z,8.17
2018-01-31T16:22:40.938Z,10.03
2018-01-31T16:25:08.881Z,9.67
2018-01-31T16:27:49.401Z,11.67
2018-01-31T16:30:23.091Z,12.70
2018-01-31T16:33:02.716Z,13.43
2018-01-31T16:35:30.552Z,12.13
2018-01-31T16:37:58.353Z,11.20
2018-01-31T16:40:26.263Z,14.27
2018-01-31T16:42:54.123Z,23.93
2018-01-31T16:45:22.156Z,16.23
2018-01-31T16:47:49.964Z,10.53
2018-01-31T16:50:17.877Z,10.13
2018-01-31T16:52:45.701Z,10.93
2018-01-31T16:55:13.518Z,13.73
2018-01-31T16:57:41.380Z,13.03
2018-01-31T17:00:09.243Z,15.13
2018-01-31T17:02:37.096Z,18.60
2018-01-31T17:05:05.698Z,9.87
2018-01-31T17:07:33.539Z,19.30
2018-01-31T17:10:02.112Z,11.33
2018-01-31T17:12:29.926Z,14.93
2018-01-31T17:14:57.764Z,17.83
2018-01-31T17:17:26.356Z,18.63
2018-01-31T17:19:54.224Z,21.03
2018-01-31T17:22:22.031Z,20.43
2018-01-31T17:24:49.948Z,12.73
2018-01-31T17:27:18.499Z,20.77
2018-01-31T17:29:46.363Z,24.40
2018-01-31T17:32:14.209Z,15.07
2018-01-31T17:34:42.031Z,14.33
2018-01-31T17:37:09.812Z,18.87
2018-01-31T17:39:37.738Z,16.83
2018-01-31T17:42:05.545Z,13.43
2018-01-31T17:44:33.454Z,15.10
2018-01-31T17:47:01.247Z,16.93
2018-01-31T17:49:29.908Z,13.53
2018-01-31T17:51:57.732Z,14.02
2018-01-31T19:47:24.395Z,17.23
2018-01-31T19:49:52.195Z,14.67
2018-01-31T19:52:20.743Z,14.50
2018-01-31T19:54:48.539Z,12.77
2018-01-31T19:57:17.150Z,39.23
2018-01-31T19:59:45.098Z,26.13
2018-01-31T20:02:12.965Z,15.10
2018-01-31T20:04:41.605Z,10.17
2018-01-31T20:07:09.420Z,19.43
2018-01-31T20:09:37.979Z,17.63
2018-01-31T20:12:05.822Z,15.43
2018-01-31T20:14:33.660Z,16.33
2018-01-31T20:17:01.476Z,15.40
2018-01-31T20:19:30.125Z,15.20
2018-01-31T20:21:57.923Z,19.17
2018-01-31T20:24:25.742Z,16.83
2018-01-31T20:26:53.569Z,20.30
2018-01-31T20:29:22.165Z,16.37
2018-01-31T20:31:50.014Z,20.80
2018-01-31T20:34:18.586Z,23.10
2018-01-31T20:36:47.169Z,15.00
2018-01-31T20:39:14.989Z,16.20
2018-01-31T20:41:42.850Z,14.50
2018-01-31T20:44:10.679Z,10.43
2018-01-31T20:46:39.235Z,19.70
2018-01-31T20:49:07.033Z,13.90
2018-01-31T20:51:35.775Z,23.30
2018-01-31T20:54:03.575Z,15.03
2018-01-31T20:56:32.195Z,19.80
2018-01-31T20:58:59.988Z,18.20
2018-01-31T21:01:27.852Z,18.97
2018-01-31T21:03:55.642Z,21.27
2018-01-31T21:06:23.496Z,22.70
2018-01-31T21:08:51.305Z,18.17
2018-01-31T21:11:19.144Z,17.70
2018-01-31T21:13:47.819Z,15.13
2018-01-31T21:16:17.793Z,19.40
2018-01-31T21:18:45.678Z,12.70
2018-01-31T21:21:13.897Z,13.37
2018-01-31T21:23:41.728Z,12.20
2018-01-31T21:26:09.597Z,11.57
2018-01-31T21:28:38.458Z,15.93
2018-01-31T21:31:30.365Z,13.73
2018-01-31T21:33:58.138Z,12.83
2018-01-31T21:36:26.015Z,17.23
2018-01-31T21:38:53.899Z,14.73
2018-01-31T21:41:22.951Z,21.50
2018-01-31T21:43:52.147Z,15.90
2018-01-31T21:46:21.227Z,27.23
2018-01-31T21:49:23.390Z,23.97
2018-01-31T21:51:51.221Z,19.77
2018-01-31T22:00:38.657Z,22.37
2018-01-31T22:03:38.524Z,21.37
2018-01-31T22:06:08.933Z,20.40
2018-01-31T22:08:36.780Z,24.27
2018-01-31T22:11:04.572Z,23.33
2018-01-31T22:13:32.531Z,17.77
2018-01-31T22:16:00.399Z,16.13
2018-01-31T22:18:28.199Z,23.57
2018-01-31T22:20:56.783Z,19.87
2018-01-31T22:23:24.608Z,32.17
2018-01-31T22:25:52.466Z,18.33
2018-01-31T22:28:20.292Z,23.60
2018-01-31T22:30:48.093Z,35.53
2018-01-31T22:33:15.932Z,28.33
2018-01-31T22:35:43.747Z,20.67
2018-01-31T22:38:11.564Z,35.73
2018-01-31T22:40:39.394Z,21.93
2018-01-31T22:43:07.961Z,36.37
2018-01-31T22:45:35.752Z,32.73
2018-01-31T22:48:04.386Z,43.40
2018-01-31T22:50:32.217Z,21.43
2018-01-31T22:53:00.017Z,23.70
2018-01-31T22:55:27.799Z,27.23
2018-01-31T22:57:55.667Z,14.67
2018-01-31T23:00:23.585Z,24.77
2018-01-31T23:02:51.432Z,22.53
2018-01-31T23:05:20.054Z,25.43
2018-01-31T23:07:47.930Z,23.65
2018-01-31T23:10:15.739Z,22.83
2018-01-31T23:12:49.964Z,21.57
2018-01-31T23:15:18.556Z,20.87
2018-01-31T23:17:52.818Z,27.93
2018-01-31T23:20:20.664Z,32.57
2018-01-31T23:22:48.518Z,27.60
2018-01-31T23:25:16.405Z,29.33
2018-01-31T23:27:44.244Z,24.03
2018-01-31T23:30:12.036Z,22.03
2018-01-31T23:32:39.831Z,21.97
2018-01-31T23:35:07.649Z,19.87
2018-01-31T23:37:35.528Z,19.30
2018-01-31T23:40:03.385Z,23.10
2018-01-31T23:42:31.286Z,27.90
2018-01-31T23:44:59.101Z,27.93
2018-01-31T23:47:26.892Z,36.83
2018-01-31T23:49:54.741Z,23.10
2018-01-31T23:52:22.595Z,20.87
2018-01-31T23:54:50.411Z,23.10
2018-01-31T23:57:18.209Z,16.73
2018-01-31T23:59:46.791Z,19.37
